createdAt,value
2022-12-04T00:01:52.775Z,46.66
2022-12-04T00:04:19.165Z,46.86
2022-12-04T00:06:45.636Z,46.66
2022-12-04T00:09:11.988Z,46.89
2022-12-04T00:11:38.294Z,46.80
2022-12-04T00:14:07.214Z,46.99
2022-12-04T00:16:33.986Z,46.93
2022-12-04T00:19:00.290Z,46.75
2022-12-04T00:21:26.754Z,47.15
2022-12-04T00:23:53.169Z,47.31
2022-12-04T00:26:19.475Z,46.99
2022-12-04T00:28:46.097Z,47.14
2022-12-04T00:31:12.593Z,47.23
2022-12-04T00:33:39.000Z,47.60
2022-12-04T00:36:05.444Z,47.55
2022-12-04T00:38:31.767Z,47.63
2022-12-04T00:40:58.188Z,47.69
2022-12-04T00:43:24.454Z,47.54
2022-12-04T00:45:50.815Z,47.60
2022-12-04T00:48:17.220Z,47.66
2022-12-04T00:50:43.719Z,47.83
2022-12-04T00:53:10.036Z,47.99
2022-12-04T00:55:36.450Z,48.06
2022-12-04T00:58:02.852Z,48.21
2022-12-04T01:00:29.408Z,48.26
2022-12-04T01:02:56.019Z,48.29
2022-12-04T01:05:22.578Z,47.83
2022-12-04T01:07:48.905Z,48.41
2022-12-04T01:10:15.342Z,48.10
2022-12-04T01:12:41.632Z,48.57
2022-12-04T01:15:07.901Z,48.53
2022-12-04T01:17:34.268Z,48.50
2022-12-04T01:20:00.612Z,48.29
2022-12-04T01:22:26.944Z,48.55
2022-12-04T01:24:53.328Z,48.43
2022-12-04T01:27:19.816Z,48.60
2022-12-04T01:29:46.072Z,48.41
2022-12-04T01:32:12.563Z,48.44
2022-12-04T01:34:38.933Z,48.82
2022-12-04T01:37:05.446Z,48.94
2022-12-04T01:39:31.826Z,48.81
2022-12-04T01:41:58.396Z,48.72
2022-12-04T01:44:24.949Z,48.53
2022-12-04T01:46:51.339Z,48.87
2022-12-04T01:49:17.620Z,48.68
2022-12-04T01:51:44.223Z,48.69
2022-12-04T01:54:10.514Z,48.80
2022-12-04T01:56:36.881Z,48.98
2022-12-04T01:59:03.257Z,48.63
2022-12-04T02:01:29.600Z,48.58
2022-12-04T02:03:59.868Z,48.62
2022-12-04T02:06:27.371Z,48.84
2022-12-04T02:09:03.746Z,48.84
2022-12-04T02:11:30.199Z,48.83
2022-12-04T02:14:06.414Z,48.71
2022-12-04T02:16:32.771Z,48.78
2022-12-04T02:18:59.202Z,48.85
2022-12-04T02:21:26.160Z,48.78
2022-12-04T02:23:52.547Z,48.94
2022-12-04T02:26:19.020Z,49.13
2022-12-04T02:28:45.547Z,48.76
2022-12-04T02:31:11.888Z,49.06
2022-12-04T02:33:38.239Z,49.02
2022-12-04T02:36:04.551Z,49.10
2022-12-04T02:38:30.910Z,48.81
2022-12-04T02:40:57.369Z,49.19
2022-12-04T02:43:23.700Z,48.80
2022-12-04T02:45:50.148Z,49.07
2022-12-04T02:48:16.654Z,49.09
2022-12-04T02:50:42.934Z,49.02
2022-12-04T02:53:09.184Z,48.93
2022-12-04T02:55:35.601Z,48.98
2022-12-04T02:58:02.126Z,49.03
2022-12-04T03:00:28.379Z,48.99
2022-12-04T03:02:57.180Z,48.90
2022-12-04T03:05:24.031Z,48.84
2022-12-04T03:07:50.404Z,49.11
2022-12-04T03:10:17.188Z,48.92
2022-12-04T03:12:43.615Z,49.02
2022-12-04T03:15:10.170Z,49.12
2022-12-04T03:17:36.416Z,48.87
2022-12-04T03:20:02.826Z,49.16
2022-12-04T03:22:29.083Z,49.15
2022-12-04T03:24:55.444Z,48.99
2022-12-04T03:27:22.010Z,48.87
2022-12-04T03:29:48.312Z,48.93
2022-12-04T03:32:14.614Z,49.25
2022-12-04T03:34:40.904Z,49.26
2022-12-04T03:37:07.240Z,49.44
2022-12-04T03:39:33.538Z,49.19
2022-12-04T03:41:59.924Z,49.40
2022-12-04T03:44:26.189Z,49.26
2022-12-04T03:46:52.467Z,49.32
2022-12-04T03:49:18.766Z,49.37
2022-12-04T03:51:45.135Z,49.11
2022-12-04T03:54:11.559Z,49.33
2022-12-04T03:56:37.809Z,49.27
2022-12-04T03:59:04.236Z,49.38
2022-12-04T04:01:30.806Z,49.12
2022-12-04T04:03:57.601Z,49.24
2022-12-04T04:06:24.645Z,49.33
2022-12-04T04:08:51.160Z,49.32
2022-12-04T04:11:17.878Z,49.34
2022-12-04T04:13:44.308Z,49.14
2022-12-04T04:16:11.119Z,49.40
2022-12-04T04:18:37.609Z,49.38
2022-12-04T04:21:03.897Z,49.04
2022-12-04T04:23:30.192Z,49.19
2022-12-04T04:25:56.469Z,49.41
2022-12-04T04:28:22.773Z,49.44
2022-12-04T04:30:49.142Z,49.23
2022-12-04T04:33:15.577Z,49.44
2022-12-04T04:35:42.057Z,49.51
2022-12-04T04:38:08.493Z,49.49
2022-12-04T04:40:35.014Z,49.52
2022-12-04T04:43:01.306Z,49.50
2022-12-04T04:45:27.560Z,49.12
2022-12-04T04:47:53.879Z,49.33
2022-12-04T04:50:20.184Z,49.67
2022-12-04T04:52:46.658Z,49.56
2022-12-04T04:55:12.979Z,49.47
2022-12-04T04:57:39.354Z,49.60
2022-12-04T05:00:06.079Z,49.66
2022-12-04T05:02:32.419Z,49.35
2022-12-04T05:04:58.827Z,49.51
2022-12-04T05:07:25.162Z,49.33
2022-12-04T05:09:51.604Z,49.62
2022-12-04T05:12:17.884Z,49.41
2022-12-04T05:14:44.434Z,49.60
2022-12-04T05:17:12.802Z,49.39
2022-12-04T05:19:39.385Z,49.42
2022-12-04T05:22:05.783Z,49.32
2022-12-04T05:24:32.177Z,49.34
2022-12-04T05:26:58.491Z,49.25
2022-12-04T05:29:24.756Z,49.30
2022-12-04T05:31:51.077Z,49.63
2022-12-04T05:34:17.379Z,49.49
2022-12-04T05:36:43.672Z,49.41
2022-12-04T05:39:10.002Z,49.65
2022-12-04T05:41:36.345Z,49.47
2022-12-04T05:44:02.673Z,49.35
2022-12-04T05:46:29.114Z,49.65
2022-12-04T05:48:55.448Z,49.72
2022-12-04T05:51:21.773Z,49.37
2022-12-04T05:53:48.097Z,49.44
2022-12-04T05:56:14.450Z,49.35
2022-12-04T05:58:40.893Z,49.58
2022-12-04T06:01:07.184Z,49.30
2022-12-04T06:03:33.610Z,49.61
2022-12-04T06:05:59.973Z,49.60
2022-12-04T06:08:26.299Z,49.68
2022-12-04T06:10:52.573Z,49.68
2022-12-04T06:13:18.873Z,49.39
2022-12-04T06:15:45.161Z,49.50
2022-12-04T06:18:11.451Z,49.61
2022-12-04T06:20:37.824Z,49.34
2022-12-04T06:23:04.171Z,49.56
2022-12-04T06:25:30.504Z,49.71
2022-12-04T06:27:56.984Z,49.27
2022-12-04T06:30:23.749Z,49.80
2022-12-04T06:32:50.087Z,49.38
2022-12-04T06:35:16.390Z,49.58
2022-12-04T06:37:42.672Z,49.58
2022-12-04T06:40:09.044Z,49.60
2022-12-04T06:42:35.482Z,49.53
2022-12-04T06:45:01.911Z,49.66
2022-12-04T06:47:28.323Z,49.70
2022-12-04T06:49:55.001Z,49.67
2022-12-04T06:52:21.490Z,49.59
2022-12-04T06:54:47.739Z,49.59
2022-12-04T06:57:14.071Z,49.73
2022-12-04T06:59:40.407Z,49.58
2022-12-04T07:02:06.769Z,49.55
2022-12-04T07:04:33.143Z,49.73
2022-12-04T07:06:59.640Z,49.58
2022-12-04T07:09:26.151Z,49.70
2022-12-04T07:11:52.442Z,49.80
2022-12-04T07:14:18.748Z,49.56
2022-12-04T07:16:45.077Z,49.75
2022-12-04T07:19:11.502Z,49.72
2022-12-04T07:21:37.845Z,49.74
2022-12-04T07:24:04.208Z,49.67
2022-12-04T07:26:30.595Z,49.80
2022-12-04T07:28:56.932Z,49.71
2022-12-04T07:31:23.305Z,49.68
2022-12-04T07:33:49.814Z,49.79
2022-12-04T07:36:16.228Z,49.81
2022-12-04T07:38:42.513Z,49.69
2022-12-04T07:41:08.813Z,49.79
2022-12-04T07:43:35.130Z,49.57
2022-12-04T07:46:01.655Z,49.81
2022-12-04T07:48:33.155Z,49.68
2022-12-04T07:51:00.011Z,49.90
2022-12-04T07:53:26.304Z,49.49
2022-12-04T07:55:52.660Z,49.72
2022-12-04T07:58:19.273Z,49.95
2022-12-04T08:00:45.673Z,49.80
2022-12-04T08:03:12.263Z,49.79
2022-12-04T08:05:38.635Z,49.86
2022-12-04T08:08:05.057Z,49.68
2022-12-04T08:10:31.544Z,49.51
2022-12-04T08:12:57.869Z,49.56
2022-12-04T08:15:24.222Z,49.91
2022-12-04T08:17:50.517Z,49.83
2022-12-04T08:20:16.914Z,49.55
2022-12-04T08:22:43.186Z,49.58
2022-12-04T08:25:09.498Z,49.88
2022-12-04T08:27:35.803Z,49.91
2022-12-04T08:30:02.392Z,49.72
2022-12-04T08:32:28.847Z,49.74
2022-12-04T08:34:56.084Z,49.81
2022-12-04T08:37:22.540Z,49.58
2022-12-04T08:39:48.831Z,49.71
2022-12-04T08:42:15.146Z,49.79
2022-12-04T08:44:41.461Z,49.67
2022-12-04T08:47:07.738Z,49.81
2022-12-04T08:49:34.084Z,50.01
2022-12-04T08:52:00.348Z,49.84
2022-12-04T08:54:29.400Z,49.89
2022-12-04T08:56:57.988Z,49.68
2022-12-04T08:59:24.306Z,49.93
2022-12-04T09:01:50.788Z,49.97
2022-12-04T09:04:17.258Z,49.87
2022-12-04T09:06:43.615Z,50.03
2022-12-04T09:09:10.029Z,49.74
2022-12-04T09:11:36.333Z,50.08
2022-12-04T09:14:02.838Z,49.98
2022-12-04T09:16:29.264Z,49.80
2022-12-04T09:18:55.760Z,49.84
2022-12-04T09:21:22.109Z,50.01
2022-12-04T09:23:48.675Z,49.79
2022-12-04T09:26:15.038Z,49.62
2022-12-04T09:28:41.356Z,49.74
2022-12-04T09:31:07.693Z,49.72
2022-12-04T09:33:33.986Z,50.08
2022-12-04T09:36:00.360Z,49.89
2022-12-04T09:38:26.622Z,50.05
2022-12-04T09:40:52.939Z,49.79
2022-12-04T09:43:19.514Z,49.83
2022-12-04T09:45:45.952Z,49.84
2022-12-04T09:48:12.422Z,49.99
2022-12-04T09:50:38.750Z,49.85
2022-12-04T09:53:05.027Z,50.11
2022-12-04T09:55:31.507Z,50.04
2022-12-04T09:58:01.780Z,49.85
2022-12-04T10:00:28.708Z,49.88
2022-12-04T10:02:55.125Z,49.77
2022-12-04T10:05:21.567Z,50.06
2022-12-04T10:07:47.902Z,49.93
2022-12-04T10:10:14.345Z,49.72
2022-12-04T10:12:40.652Z,49.99
2022-12-04T10:15:07.093Z,49.92
2022-12-04T10:17:33.731Z,50.14
2022-12-04T10:19:59.987Z,50.17
2022-12-04T10:22:26.600Z,49.99
2022-12-04T10:24:53.180Z,50.02
2022-12-04T10:27:19.625Z,49.76
2022-12-04T10:29:46.067Z,50.33
2022-12-04T10:32:12.501Z,50.33
2022-12-04T10:34:42.613Z,50.24
2022-12-04T10:37:12.221Z,50.60
2022-12-04T10:39:38.773Z,50.72
2022-12-04T10:42:05.066Z,50.38
2022-12-04T10:44:31.435Z,50.69
2022-12-04T10:46:57.840Z,50.97
2022-12-04T10:49:24.483Z,50.90
2022-12-04T10:51:50.907Z,50.61
2022-12-04T10:54:17.363Z,50.92
2022-12-04T10:56:43.777Z,50.78
2022-12-04T10:59:10.140Z,50.54
2022-12-04T11:01:36.717Z,50.57
2022-12-04T11:04:03.071Z,50.61
2022-12-04T11:06:29.595Z,50.60
2022-12-04T11:08:55.933Z,50.46
2022-12-04T11:11:22.222Z,50.42
2022-12-04T11:13:48.576Z,50.95
2022-12-04T11:16:14.966Z,50.81
2022-12-04T11:18:41.657Z,50.59
2022-12-04T11:21:08.063Z,50.95
2022-12-04T11:23:34.390Z,50.88
2022-12-04T11:26:05.559Z,50.87
2022-12-04T11:28:47.894Z,51.00
2022-12-04T11:31:14.499Z,51.03
2022-12-04T11:33:40.965Z,50.88
2022-12-04T11:36:07.437Z,50.97
2022-12-04T11:38:34.017Z,50.91
2022-12-04T11:41:00.329Z,50.96
2022-12-04T11:43:27.094Z,51.13
2022-12-04T11:45:53.624Z,50.87
2022-12-04T11:48:20.001Z,50.78
2022-12-04T11:50:46.513Z,51.25
2022-12-04T11:53:13.001Z,51.19
2022-12-04T11:55:39.424Z,51.75
2022-12-04T11:58:05.703Z,51.76
2022-12-04T12:00:32.001Z,52.00
2022-12-04T12:02:59.734Z,51.82
2022-12-04T12:05:26.282Z,51.96
2022-12-04T12:07:55.277Z,52.44
2022-12-04T12:10:25.517Z,52.11
2022-12-04T12:12:51.936Z,52.81
2022-12-04T12:15:18.361Z,52.21
2022-12-04T12:17:44.594Z,51.59
2022-12-04T12:20:11.120Z,51.80
2022-12-04T12:22:37.403Z,51.75
2022-12-04T12:25:04.028Z,51.63
2022-12-04T12:27:30.318Z,51.75
2022-12-04T12:29:56.929Z,51.40
2022-12-04T12:32:23.431Z,51.69
2022-12-04T12:34:49.742Z,51.77
2022-12-04T12:37:16.183Z,51.65
2022-12-04T12:39:42.622Z,51.82
2022-12-04T12:42:08.919Z,51.97
2022-12-04T12:44:35.302Z,51.87
2022-12-04T12:47:02.052Z,51.68
2022-12-04T12:49:28.370Z,51.82
2022-12-04T12:51:54.755Z,51.47
2022-12-04T12:54:21.048Z,51.57
2022-12-04T12:56:49.743Z,51.70
2022-12-04T12:59:16.533Z,51.91
2022-12-04T13:01:43.093Z,51.95
2022-12-04T13:04:09.679Z,51.87
2022-12-04T13:06:36.058Z,52.16
2022-12-04T13:09:02.327Z,52.05
2022-12-04T13:11:28.698Z,52.28
2022-12-04T13:13:55.035Z,52.49
2022-12-04T13:16:21.588Z,52.52
2022-12-04T13:18:48.058Z,53.02
2022-12-04T13:21:14.447Z,53.27
2022-12-04T13:23:40.821Z,53.93
2022-12-04T13:26:07.453Z,53.86
2022-12-04T13:28:33.927Z,53.99
2022-12-04T13:31:00.673Z,54.25
2022-12-04T13:33:27.024Z,54.80
2022-12-04T13:35:53.616Z,54.72
2022-12-04T13:38:20.067Z,54.84
2022-12-04T13:40:46.483Z,54.90
2022-12-04T13:43:12.926Z,55.10
2022-12-04T13:45:39.538Z,55.03
2022-12-04T13:48:06.056Z,55.00
2022-12-04T13:50:32.344Z,54.96
2022-12-04T13:52:58.645Z,55.09
2022-12-04T13:55:25.126Z,54.82
2022-12-04T13:57:51.558Z,54.89
2022-12-04T14:00:17.919Z,54.92
2022-12-04T14:02:44.388Z,54.78
2022-12-04T14:05:10.746Z,54.81
2022-12-04T14:07:37.277Z,54.73
2022-12-04T14:10:03.687Z,54.69
2022-12-04T14:12:30.109Z,55.07
2022-12-04T14:14:56.988Z,54.80
2022-12-04T14:17:24.012Z,54.83
2022-12-04T14:19:50.504Z,54.93
2022-12-04T14:22:17.082Z,54.62
2022-12-04T14:24:43.419Z,54.73
2022-12-04T14:27:12.091Z,54.87
2022-12-04T14:29:38.830Z,54.78
2022-12-04T14:32:05.215Z,54.51
2022-12-04T14:34:31.514Z,54.63
2022-12-04T14:36:57.914Z,54.25
2022-12-04T14:39:24.400Z,54.32
2022-12-04T14:41:50.767Z,54.56
2022-12-04T14:44:17.226Z,54.44
2022-12-04T14:46:43.657Z,54.52
2022-12-04T14:49:10.307Z,54.37
2022-12-04T14:51:36.815Z,54.43
2022-12-04T14:54:03.378Z,54.89
2022-12-04T14:56:30.014Z,54.81
2022-12-04T14:58:56.389Z,54.73
2022-12-04T15:01:28.752Z,54.67
2022-12-04T15:03:56.008Z,54.86
2022-12-04T15:06:22.375Z,55.06
2022-12-04T15:08:48.775Z,54.75
2022-12-04T15:11:15.234Z,54.89
2022-12-04T15:13:41.626Z,54.81
2022-12-04T15:16:08.049Z,54.83
2022-12-04T15:18:39.428Z,55.22
2022-12-04T15:21:06.215Z,54.64
2022-12-04T15:23:32.596Z,54.62
2022-12-04T15:25:58.889Z,54.36
2022-12-04T15:28:25.184Z,54.52
2022-12-04T15:30:51.517Z,54.17
2022-12-04T15:33:21.490Z,54.11
2022-12-04T15:35:48.332Z,53.91
2022-12-04T15:38:14.609Z,54.21
2022-12-04T15:40:40.894Z,54.09
2022-12-04T15:43:07.256Z,54.11
2022-12-04T15:45:33.589Z,53.89
2022-12-04T15:47:59.862Z,53.74
2022-12-04T15:50:26.399Z,53.80
2022-12-04T15:52:52.684Z,53.57
2022-12-04T15:55:19.100Z,53.36
2022-12-04T15:57:45.390Z,53.19
2022-12-04T16:00:11.799Z,53.08
2022-12-04T16:02:38.175Z,53.31
2022-12-04T16:05:04.480Z,53.03
2022-12-04T16:07:30.911Z,53.52
2022-12-04T16:10:02.812Z,53.20
2022-12-04T16:12:30.272Z,52.99
2022-12-04T16:14:56.773Z,53.05
2022-12-04T16:17:23.276Z,53.04
2022-12-04T16:19:49.571Z,52.88
2022-12-04T16:22:19.346Z,53.09
2022-12-04T16:24:46.694Z,53.14
2022-12-04T16:27:13.004Z,52.98
2022-12-04T16:29:39.352Z,52.77
2022-12-04T16:32:06.013Z,52.98
2022-12-04T16:34:32.425Z,52.87
2022-12-04T16:36:58.756Z,52.95
2022-12-04T16:39:25.057Z,53.15
2022-12-04T16:41:51.422Z,52.91
2022-12-04T16:44:17.675Z,53.11
2022-12-04T16:46:44.127Z,53.21
2022-12-04T16:49:10.618Z,53.13
2022-12-04T16:51:36.885Z,52.96
2022-12-04T16:54:03.306Z,53.09
2022-12-04T16:56:29.728Z,53.06
2022-12-04T16:58:56.175Z,53.13
2022-12-04T17:01:22.527Z,53.17
2022-12-04T17:03:49.030Z,53.03
2022-12-04T17:06:15.525Z,53.02
2022-12-04T17:08:41.850Z,52.74
2022-12-04T17:11:08.200Z,53.05
2022-12-04T17:13:34.481Z,52.80
2022-12-04T17:16:00.925Z,52.90
2022-12-04T17:18:27.396Z,52.88
2022-12-04T17:20:53.751Z,52.81
2022-12-04T17:23:20.036Z,52.75
2022-12-04T17:25:46.373Z,52.77
2022-12-04T17:28:12.848Z,52.97
2022-12-04T17:30:39.150Z,52.83
2022-12-04T17:33:05.499Z,52.91
2022-12-04T17:35:31.905Z,52.83
2022-12-04T17:38:03.882Z,52.88
2022-12-04T17:40:32.264Z,52.98
2022-12-04T17:42:58.592Z,52.88
2022-12-04T17:45:24.916Z,52.76
2022-12-04T17:47:51.293Z,52.78
2022-12-04T17:50:17.606Z,52.71
2022-12-04T17:52:43.962Z,52.87
2022-12-04T17:55:10.517Z,53.15
2022-12-04T17:57:36.980Z,52.61
2022-12-04T18:00:03.286Z,52.63
2022-12-04T18:02:29.634Z,52.90
2022-12-04T18:04:56.247Z,52.93
2022-12-04T18:07:22.751Z,52.59
2022-12-04T18:09:49.200Z,52.75
2022-12-04T18:12:15.613Z,52.65
2022-12-04T18:14:42.340Z,52.77
2022-12-04T18:17:08.627Z,52.54
2022-12-04T18:19:35.048Z,52.68
2022-12-04T18:22:01.348Z,53.01
2022-12-04T18:24:27.752Z,52.67
2022-12-04T18:26:54.186Z,52.81
2022-12-04T18:29:20.545Z,52.49
2022-12-04T18:31:47.147Z,52.75
2022-12-04T18:34:13.437Z,52.60
2022-12-04T18:36:39.764Z,52.65
2022-12-04T18:39:06.028Z,52.54
2022-12-04T18:41:32.566Z,52.63
2022-12-04T18:43:58.971Z,52.62
2022-12-04T18:46:25.414Z,52.58
2022-12-04T18:48:51.932Z,52.48
2022-12-04T18:51:18.254Z,52.39
2022-12-04T18:53:44.684Z,52.55
2022-12-04T18:56:11.097Z,52.60
2022-12-04T18:58:37.492Z,52.44
2022-12-04T19:01:03.986Z,52.64
2022-12-04T19:03:30.371Z,52.45
2022-12-04T19:05:56.936Z,52.63
2022-12-04T19:08:24.669Z,52.70
2022-12-04T19:10:53.723Z,52.28
2022-12-04T19:13:20.106Z,52.69
2022-12-04T19:15:46.524Z,52.35
2022-12-04T19:18:12.866Z,52.83
2022-12-04T19:20:39.183Z,52.68
2022-12-04T19:23:05.491Z,52.61
2022-12-04T19:25:31.893Z,52.57
2022-12-04T19:27:58.369Z,52.55
2022-12-04T19:30:24.696Z,52.62
2022-12-04T19:32:51.086Z,52.81
2022-12-04T19:35:17.449Z,52.69
2022-12-04T19:37:48.186Z,52.71
2022-12-04T19:40:17.688Z,52.94
2022-12-04T19:42:43.997Z,52.59
2022-12-04T19:45:10.293Z,52.66
2022-12-04T19:47:36.610Z,52.90
2022-12-04T19:50:02.964Z,52.82
2022-12-04T19:52:29.348Z,52.82
2022-12-04T19:54:55.644Z,53.03
2022-12-04T19:57:22.019Z,52.95
2022-12-04T19:59:48.536Z,52.62
2022-12-04T20:02:14.998Z,52.72
2022-12-04T20:04:41.479Z,52.73
2022-12-04T20:07:07.878Z,52.73
2022-12-04T20:09:34.188Z,52.60
2022-12-04T20:12:00.597Z,52.74
2022-12-04T20:14:26.874Z,52.97
2022-12-04T20:16:53.206Z,52.73
2022-12-04T20:19:19.625Z,52.99
2022-12-04T20:21:46.090Z,53.00
2022-12-04T20:24:12.437Z,52.92
2022-12-04T20:26:39.082Z,52.74
2022-12-04T20:29:05.357Z,52.87
2022-12-04T20:31:31.732Z,52.89
2022-12-04T20:33:57.969Z,53.19
2022-12-04T20:36:24.310Z,52.70
2022-12-04T20:38:50.609Z,53.18
2022-12-04T20:41:16.905Z,53.02
2022-12-04T20:43:43.173Z,52.96
2022-12-04T20:46:09.657Z,52.93
2022-12-04T20:48:36.126Z,52.81
2022-12-04T20:51:02.439Z,53.04
2022-12-04T20:53:28.742Z,53.19
2022-12-04T20:55:55.052Z,53.00
2022-12-04T20:58:21.395Z,53.13
2022-12-04T21:00:47.703Z,52.89
2022-12-04T21:03:14.204Z,53.00
2022-12-04T21:05:40.576Z,53.12
2022-12-04T21:08:06.982Z,52.98
2022-12-04T21:10:33.503Z,53.15
2022-12-04T21:12:59.860Z,53.19
2022-12-04T21:15:26.235Z,53.21
2022-12-04T21:17:52.547Z,53.19
2022-12-04T21:20:18.886Z,53.14
2022-12-04T21:22:45.171Z,53.11
2022-12-04T21:25:11.510Z,53.38
2022-12-04T21:27:37.816Z,53.18
2022-12-04T21:30:04.308Z,53.39
2022-12-04T21:32:30.677Z,53.23
2022-12-04T21:34:56.938Z,53.06
2022-12-04T21:37:23.288Z,53.52
2022-12-04T21:39:49.587Z,53.42
2022-12-04T21:42:16.076Z,53.22
2022-12-04T21:44:42.402Z,53.07
2022-12-04T21:47:08.845Z,53.17
2022-12-04T21:49:35.132Z,53.12
2022-12-04T21:52:01.494Z,53.23
2022-12-04T21:54:27.976Z,53.16
2022-12-04T21:56:54.294Z,53.45
2022-12-04T21:59:20.613Z,53.16
2022-12-04T22:01:47.097Z,53.48
2022-12-04T22:04:13.477Z,53.35
2022-12-04T22:06:39.896Z,53.42
2022-12-04T22:09:06.271Z,53.43
2022-12-04T22:11:32.762Z,53.22
2022-12-04T22:13:59.090Z,53.16
2022-12-04T22:16:29.804Z,53.58
2022-12-04T22:18:57.072Z,53.48
2022-12-04T22:21:23.534Z,53.25
2022-12-04T22:23:49.961Z,53.51
2022-12-04T22:26:16.288Z,53.14
2022-12-04T22:28:42.699Z,53.37
2022-12-04T22:31:09.094Z,53.59
2022-12-04T22:33:35.450Z,53.45
2022-12-04T22:36:01.913Z,53.59
2022-12-04T22:38:28.165Z,53.38
2022-12-04T22:40:54.440Z,53.48
2022-12-04T22:43:20.735Z,53.47
2022-12-04T22:45:47.032Z,53.38
2022-12-04T22:48:13.538Z,53.53
2022-12-04T22:50:39.824Z,53.38
2022-12-04T22:53:06.124Z,53.48
2022-12-04T22:55:32.404Z,53.46
2022-12-04T22:57:58.781Z,53.54
2022-12-04T23:00:25.037Z,53.42
2022-12-04T23:02:51.458Z,53.56
2022-12-04T23:05:17.942Z,53.43
2022-12-04T23:07:44.484Z,53.62
2022-12-04T23:10:11.034Z,53.67
2022-12-04T23:12:37.596Z,53.62
2022-12-04T23:15:04.157Z,53.64
2022-12-04T23:17:30.508Z,53.73
2022-12-04T23:19:57.126Z,53.81
2022-12-04T23:22:23.670Z,53.60
2022-12-04T23:24:50.148Z,53.35
2022-12-04T23:27:16.486Z,53.68
2022-12-04T23:29:53.187Z,53.49
2022-12-04T23:32:19.753Z,53.70
2022-12-04T23:34:46.080Z,53.59
2022-12-04T23:37:12.530Z,53.62
2022-12-04T23:39:39.000Z,53.82
2022-12-04T23:42:05.422Z,53.80
2022-12-04T23:44:31.725Z,53.49
2022-12-04T23:46:58.162Z,53.79
2022-12-04T23:49:24.490Z,53.90
2022-12-04T23:51:50.802Z,53.52
2022-12-04T23:54:17.180Z,53.81
2022-12-04T23:56:43.518Z,53.66
2022-12-04T23:59:09.932Z,53.75
